sensor_id;sensor_type;location;lat;lon;timestamp;temperature;humidity
16863;DHT22;52193;48.216;-1.698;2024-02-28T00:02:20;10.20;99.90
16863;DHT22;52193;48.216;-1.698;2024-02-28T00:04:48;10.20;99.90
16863;DHT22;52193;48.216;-1.698;2024-02-28T00:07:15;10.20;99.90
16863;DHT22;52193;48.216;-1.698;2024-02-28T00:09:43;10.20;99.90
16863;DHT22;52193;48.216;-1.698;2024-02-28T00:12:10;10.20;99.90
16863;DHT22;52193;48.216;-1.698;2024-02-28T00:14:37;10.20;99.90
16863;DHT22;52193;48.216;-1.698;2024-02-28T00:17:04;10.10;99.90
16863;DHT22;52193;48.216;-1.698;2024-02-28T00:19:31;10.20;99.90
16863;DHT22;52193;48.216;-1.698;2024-02-28T00:21:59;10.20;99.90
16863;DHT22;52193;48.216;-1.698;2024-02-28T00:24:26;10.20;99.90
16863;DHT22;52193;48.216;-1.698;2024-02-28T00:26:53;10.20;99.90
16863;DHT22;52193;48.216;-1.698;2024-02-28T00:29:20;10.20;99.90
16863;DHT22;52193;48.216;-1.698;2024-02-28T00:31:47;10.20;99.90
16863;DHT22;52193;48.216;-1.698;2024-02-28T00:34:14;10.30;99.90
16863;DHT22;52193;48.216;-1.698;2024-02-28T00:36:41;10.30;99.90
16863;DHT22;52193;48.216;-1.698;2024-02-28T00:39:09;10.30;99.90
16863;DHT22;52193;48.216;-1.698;2024-02-28T00:41:36;10.30;99.90
16863;DHT22;52193;48.216;-1.698;2024-02-28T00:44:03;10.30;99.90
16863;DHT22;52193;48.216;-1.698;2024-02-28T00:46:30;10.40;99.90
16863;DHT22;52193;48.216;-1.698;2024-02-28T00:48:57;10.40;99.90
16863;DHT22;52193;48.216;-1.698;2024-02-28T00:51:23;10.40;99.90
16863;DHT22;52193;48.216;-1.698;2024-02-28T00:53:50;10.40;99.90
16863;DHT22;52193;48.216;-1.698;2024-02-28T00:56:18;10.50;99.90
16863;DHT22;52193;48.216;-1.698;2024-02-28T00:58:45;10.50;99.90
16863;DHT22;52193;48.216;-1.698;2024-02-28T01:01:12;10.50;99.90
16863;DHT22;52193;48.216;-1.698;2024-02-28T01:03:39;10.50;99.90
16863;DHT22;52193;48.216;-1.698;2024-02-28T01:06:06;10.50;99.90
16863;DHT22;52193;48.216;-1.698;2024-02-28T01:08:33;10.50;99.90
16863;DHT22;52193;48.216;-1.698;2024-02-28T01:10:59;10.50;99.90
16863;DHT22;52193;48.216;-1.698;2024-02-28T01:13:28;10.50;99.90
16863;DHT22;52193;48.216;-1.698;2024-02-28T01:15:54;10.60;99.90
16863;DHT22;52193;48.216;-1.698;2024-02-28T01:18:21;10.60;99.90
16863;DHT22;52193;48.216;-1.698;2024-02-28T01:20:48;10.60;99.90
16863;DHT22;52193;48.216;-1.698;2024-02-28T01:23:17;10.60;99.90
16863;DHT22;52193;48.216;-1.698;2024-02-28T01:25:43;10.60;99.90
16863;DHT22;52193;48.216;-1.698;2024-02-28T01:28:10;10.60;99.90
16863;DHT22;52193;48.216;-1.698;2024-02-28T01:30:38;10.60;99.90
16863;DHT22;52193;48.216;-1.698;2024-02-28T01:33:05;10.60;99.90
16863;DHT22;52193;48.216;-1.698;2024-02-28T01:35:32;10.70;99.90
16863;DHT22;52193;48.216;-1.698;2024-02-28T01:37:59;10.60;99.90
16863;DHT22;52193;48.216;-1.698;2024-02-28T01:40:26;10.60;99.90
16863;DHT22;52193;48.216;-1.698;2024-02-28T01:42:53;10.70;99.90
16863;DHT22;52193;48.216;-1.698;2024-02-28T01:45:19;10.70;99.90
16863;DHT22;52193;48.216;-1.698;2024-02-28T01:47:48;10.70;99.90
16863;DHT22;52193;48.216;-1.698;2024-02-28T01:50:15;10.60;99.90
16863;DHT22;52193;48.216;-1.698;2024-02-28T01:52:42;10.70;99.90
16863;DHT22;52193;48.216;-1.698;2024-02-28T01:55:09;10.70;99.90
16863;DHT22;52193;48.216;-1.698;2024-02-28T01:57:37;10.70;99.90
16863;DHT22;52193;48.216;-1.698;2024-02-28T02:00:05;10.60;99.90
16863;DHT22;52193;48.216;-1.698;2024-02-28T02:02:33;10.60;99.90
16863;DHT22;52193;48.216;-1.698;2024-02-28T02:05:02;10.60;99.90
16863;DHT22;52193;48.216;-1.698;2024-02-28T02:07:29;10.60;99.90
16863;DHT22;52193;48.216;-1.698;2024-02-28T02:09:57;10.60;99.90
16863;DHT22;52193;48.216;-1.698;2024-02-28T02:12:24;10.60;99.90
16863;DHT22;52193;48.216;-1.698;2024-02-28T02:14:51;10.60;99.90
16863;DHT22;52193;48.216;-1.698;2024-02-28T02:17:18;10.60;99.90
16863;DHT22;52193;48.216;-1.698;2024-02-28T02:19:45;10.50;99.90
16863;DHT22;52193;48.216;-1.698;2024-02-28T02:22:14;10.50;99.90
16863;DHT22;52193;48.216;-1.698;2024-02-28T02:24:42;10.50;99.90
16863;DHT22;52193;48.216;-1.698;2024-02-28T02:27:09;10.50;99.90
16863;DHT22;52193;48.216;-1.698;2024-02-28T02:29:36;10.50;99.90
16863;DHT22;52193;48.216;-1.698;2024-02-28T02:32:03;10.50;99.90
16863;DHT22;52193;48.216;-1.698;2024-02-28T02:34:30;10.50;99.90
16863;DHT22;52193;48.216;-1.698;2024-02-28T02:36:57;10.50;99.90
16863;DHT22;52193;48.216;-1.698;2024-02-28T02:39:24;10.50;99.90
16863;DHT22;52193;48.216;-1.698;2024-02-28T02:41:52;10.50;99.90
16863;DHT22;52193;48.216;-1.698;2024-02-28T02:44:19;10.50;99.90
16863;DHT22;52193;48.216;-1.698;2024-02-28T02:46:46;10.50;99.90
16863;DHT22;52193;48.216;-1.698;2024-02-28T02:49:13;10.50;99.90
16863;DHT22;52193;48.216;-1.698;2024-02-28T02:51:40;10.50;99.90
16863;DHT22;52193;48.216;-1.698;2024-02-28T02:54:08;10.50;99.90
16863;DHT22;52193;48.216;-1.698;2024-02-28T02:56:36;10.50;99.90
16863;DHT22;52193;48.216;-1.698;2024-02-28T02:59:04;10.50;99.90
16863;DHT22;52193;48.216;-1.698;2024-02-28T03:01:31;10.50;99.90
16863;DHT22;52193;48.216;-1.698;2024-02-28T03:03:58;10.50;99.90
16863;DHT22;52193;48.216;-1.698;2024-02-28T03:06:24;10.50;99.90
16863;DHT22;52193;48.216;-1.698;2024-02-28T03:08:51;10.50;99.90
16863;DHT22;52193;48.216;-1.698;2024-02-28T03:11:18;10.60;99.90
16863;DHT22;52193;48.216;-1.698;2024-02-28T03:13:45;10.60;99.90
16863;DHT22;52193;48.216;-1.698;2024-02-28T03:16:13;10.60;99.90
16863;DHT22;52193;48.216;-1.698;2024-02-28T03:18:40;10.60;99.90
16863;DHT22;52193;48.216;-1.698;2024-02-28T03:21:07;10.60;99.90
16863;DHT22;52193;48.216;-1.698;2024-02-28T03:23:34;10.60;99.90
16863;DHT22;52193;48.216;-1.698;2024-02-28T03:26:02;10.70;99.90
16863;DHT22;52193;48.216;-1.698;2024-02-28T03:28:29;10.70;99.90
16863;DHT22;52193;48.216;-1.698;2024-02-28T03:30:56;10.70;99.90
16863;DHT22;52193;48.216;-1.698;2024-02-28T03:33:24;10.70;99.90
16863;DHT22;52193;48.216;-1.698;2024-02-28T03:35:51;10.70;99.90
16863;DHT22;52193;48.216;-1.698;2024-02-28T03:38:18;10.70;99.90
16863;DHT22;52193;48.216;-1.698;2024-02-28T03:40:45;10.70;99.90
16863;DHT22;52193;48.216;-1.698;2024-02-28T03:43:12;10.70;99.90
16863;DHT22;52193;48.216;-1.698;2024-02-28T03:45:39;10.70;99.90
16863;DHT22;52193;48.216;-1.698;2024-02-28T03:48:06;10.70;99.90
16863;DHT22;52193;48.216;-1.698;2024-02-28T03:50:35;10.70;99.90
16863;DHT22;52193;48.216;-1.698;2024-02-28T03:53:01;10.70;99.90
16863;DHT22;52193;48.216;-1.698;2024-02-28T03:55:28;10.70;99.90
16863;DHT22;52193;48.216;-1.698;2024-02-28T03:57:55;10.60;99.90
16863;DHT22;52193;48.216;-1.698;2024-02-28T04:00:22;10.60;99.90
16863;DHT22;52193;48.216;-1.698;2024-02-28T04:02:50;10.60;99.90
16863;DHT22;52193;48.216;-1.698;2024-02-28T04:05:16;10.60;99.90
16863;DHT22;52193;48.216;-1.698;2024-02-28T04:07:45;10.60;99.90
16863;DHT22;52193;48.216;-1.698;2024-02-28T04:10:12;10.60;99.90
16863;DHT22;52193;48.216;-1.698;2024-02-28T04:12:42;10.60;99.90
16863;DHT22;52193;48.216;-1.698;2024-02-28T04:15:10;10.70;99.90
16863;DHT22;52193;48.216;-1.698;2024-02-28T04:17:37;10.70;99.90
16863;DHT22;52193;48.216;-1.698;2024-02-28T04:20:08;10.70;99.90
16863;DHT22;52193;48.216;-1.698;2024-02-28T04:22:35;10.70;99.90
16863;DHT22;52193;48.216;-1.698;2024-02-28T04:25:04;10.70;99.90
16863;DHT22;52193;48.216;-1.698;2024-02-28T04:27:31;10.70;99.90
16863;DHT22;52193;48.216;-1.698;2024-02-28T04:29:58;10.70;99.90
16863;DHT22;52193;48.216;-1.698;2024-02-28T04:32:25;10.70;99.90
16863;DHT22;52193;48.216;-1.698;2024-02-28T04:34:52;10.70;99.90
16863;DHT22;52193;48.216;-1.698;2024-02-28T04:37:19;10.70;99.90
16863;DHT22;52193;48.216;-1.698;2024-02-28T04:39:45;10.70;99.90
16863;DHT22;52193;48.216;-1.698;2024-02-28T04:42:15;10.70;99.90
16863;DHT22;52193;48.216;-1.698;2024-02-28T04:44:42;10.70;99.90
16863;DHT22;52193;48.216;-1.698;2024-02-28T04:47:09;10.70;99.90
16863;DHT22;52193;48.216;-1.698;2024-02-28T04:49:37;10.60;99.90
16863;DHT22;52193;48.216;-1.698;2024-02-28T04:52:04;10.60;99.90
16863;DHT22;52193;48.216;-1.698;2024-02-28T04:54:32;10.50;99.90
16863;DHT22;52193;48.216;-1.698;2024-02-28T04:56:59;10.50;99.90
16863;DHT22;52193;48.216;-1.698;2024-02-28T04:59:27;10.60;99.90
16863;DHT22;52193;48.216;-1.698;2024-02-28T05:01:54;10.60;99.90
16863;DHT22;52193;48.216;-1.698;2024-02-28T05:04:21;10.60;99.90
16863;DHT22;52193;48.216;-1.698;2024-02-28T05:06:49;10.60;99.90
16863;DHT22;52193;48.216;-1.698;2024-02-28T05:09:16;10.60;99.90
16863;DHT22;52193;48.216;-1.698;2024-02-28T05:11:44;10.70;99.90
16863;DHT22;52193;48.216;-1.698;2024-02-28T05:14:11;10.60;99.90
16863;DHT22;52193;48.216;-1.698;2024-02-28T05:16:39;10.60;99.90
16863;DHT22;52193;48.216;-1.698;2024-02-28T05:19:06;10.60;99.90
16863;DHT22;52193;48.216;-1.698;2024-02-28T05:21:39;10.60;99.90
16863;DHT22;52193;48.216;-1.698;2024-02-28T05:24:06;10.60;99.90
16863;DHT22;52193;48.216;-1.698;2024-02-28T05:26:34;10.60;99.90
16863;DHT22;52193;48.216;-1.698;2024-02-28T05:29:01;10.50;99.90
16863;DHT22;52193;48.216;-1.698;2024-02-28T05:31:28;10.50;99.90
16863;DHT22;52193;48.216;-1.698;2024-02-28T05:33:59;10.50;99.90
16863;DHT22;52193;48.216;-1.698;2024-02-28T05:36:28;10.50;99.90
16863;DHT22;52193;48.216;-1.698;2024-02-28T05:38:56;10.50;99.90
16863;DHT22;52193;48.216;-1.698;2024-02-28T05:41:23;10.50;99.90
16863;DHT22;52193;48.216;-1.698;2024-02-28T05:43:51;10.50;99.90
16863;DHT22;52193;48.216;-1.698;2024-02-28T05:46:18;10.50;99.90
16863;DHT22;52193;48.216;-1.698;2024-02-28T05:48:46;10.50;99.90
16863;DHT22;52193;48.216;-1.698;2024-02-28T05:51:15;10.60;99.90
16863;DHT22;52193;48.216;-1.698;2024-02-28T05:53:42;10.50;99.90
16863;DHT22;52193;48.216;-1.698;2024-02-28T05:56:09;10.60;99.90
16863;DHT22;52193;48.216;-1.698;2024-02-28T05:58:40;10.60;99.90
16863;DHT22;52193;48.216;-1.698;2024-02-28T06:01:07;10.70;99.90
16863;DHT22;52193;48.216;-1.698;2024-02-28T06:03:34;10.70;99.90
16863;DHT22;52193;48.216;-1.698;2024-02-28T06:06:01;10.70;99.90
16863;DHT22;52193;48.216;-1.698;2024-02-28T06:08:32;10.70;99.90
16863;DHT22;52193;48.216;-1.698;2024-02-28T06:10:59;10.70;99.90
16863;DHT22;52193;48.216;-1.698;2024-02-28T06:13:26;10.70;99.90
16863;DHT22;52193;48.216;-1.698;2024-02-28T06:15:53;10.70;99.90
16863;DHT22;52193;48.216;-1.698;2024-02-28T06:18:20;10.70;99.90
16863;DHT22;52193;48.216;-1.698;2024-02-28T06:20:48;10.70;99.90
16863;DHT22;52193;48.216;-1.698;2024-02-28T06:23:15;10.70;99.90
16863;DHT22;52193;48.216;-1.698;2024-02-28T06:25:44;10.70;99.90
16863;DHT22;52193;48.216;-1.698;2024-02-28T06:28:10;10.70;99.90
16863;DHT22;52193;48.216;-1.698;2024-02-28T06:30:37;10.70;99.90
16863;DHT22;52193;48.216;-1.698;2024-02-28T06:33:04;10.70;99.90
16863;DHT22;52193;48.216;-1.698;2024-02-28T06:35:31;10.80;99.90
16863;DHT22;52193;48.216;-1.698;2024-02-28T06:37:58;10.80;99.90
16863;DHT22;52193;48.216;-1.698;2024-02-28T06:40:25;10.80;99.90
16863;DHT22;52193;48.216;-1.698;2024-02-28T06:42:53;10.80;99.90
16863;DHT22;52193;48.216;-1.698;2024-02-28T06:45:20;10.80;99.90
16863;DHT22;52193;48.216;-1.698;2024-02-28T06:47:47;10.80;99.90
16863;DHT22;52193;48.216;-1.698;2024-02-28T06:50:14;10.80;99.90
16863;DHT22;52193;48.216;-1.698;2024-02-28T06:52:41;10.80;99.90
16863;DHT22;52193;48.216;-1.698;2024-02-28T06:55:08;10.80;99.90
16863;DHT22;52193;48.216;-1.698;2024-02-28T06:57:36;10.80;99.90
16863;DHT22;52193;48.216;-1.698;2024-02-28T07:00:07;10.80;99.90
16863;DHT22;52193;48.216;-1.698;2024-02-28T07:02:34;10.80;99.90
16863;DHT22;52193;48.216;-1.698;2024-02-28T07:05:02;10.80;99.90
16863;DHT22;52193;48.216;-1.698;2024-02-28T07:07:30;10.80;99.90
16863;DHT22;52193;48.216;-1.698;2024-02-28T07:09:57;10.90;99.90
16863;DHT22;52193;48.216;-1.698;2024-02-28T07:12:24;10.90;99.90
16863;DHT22;52193;48.216;-1.698;2024-02-28T07:14:51;10.90;99.90
16863;DHT22;52193;48.216;-1.698;2024-02-28T07:17:19;10.90;99.90
16863;DHT22;52193;48.216;-1.698;2024-02-28T07:19:46;10.90;99.90
16863;DHT22;52193;48.216;-1.698;2024-02-28T07:22:13;10.90;99.90
16863;DHT22;52193;48.216;-1.698;2024-02-28T07:24:40;10.90;99.90
16863;DHT22;52193;48.216;-1.698;2024-02-28T07:27:07;10.90;99.90
16863;DHT22;52193;48.216;-1.698;2024-02-28T07:29:34;10.90;99.90
16863;DHT22;52193;48.216;-1.698;2024-02-28T07:32:01;10.90;99.90
16863;DHT22;52193;48.216;-1.698;2024-02-28T07:34:29;11.00;99.90
16863;DHT22;52193;48.216;-1.698;2024-02-28T07:36:56;11.00;99.90
16863;DHT22;52193;48.216;-1.698;2024-02-28T07:39:23;10.90;99.90
16863;DHT22;52193;48.216;-1.698;2024-02-28T07:41:50;10.90;99.90
16863;DHT22;52193;48.216;-1.698;2024-02-28T07:44:17;11.00;99.90
16863;DHT22;52193;48.216;-1.698;2024-02-28T07:46:44;11.00;99.90
16863;DHT22;52193;48.216;-1.698;2024-02-28T07:49:12;11.00;99.90
16863;DHT22;52193;48.216;-1.698;2024-02-28T07:51:41;11.00;99.90
16863;DHT22;52193;48.216;-1.698;2024-02-28T07:54:07;11.00;99.90
16863;DHT22;52193;48.216;-1.698;2024-02-28T07:56:34;11.00;99.90
16863;DHT22;52193;48.216;-1.698;2024-02-28T07:59:01;11.10;99.90
16863;DHT22;52193;48.216;-1.698;2024-02-28T08:01:28;11.10;99.90
16863;DHT22;52193;48.216;-1.698;2024-02-28T08:03:56;11.10;99.90
16863;DHT22;52193;48.216;-1.698;2024-02-28T08:06:23;11.10;99.90
16863;DHT22;52193;48.216;-1.698;2024-02-28T08:08:52;11.10;99.90
16863;DHT22;52193;48.216;-1.698;2024-02-28T08:11:19;11.20;99.90
16863;DHT22;52193;48.216;-1.698;2024-02-28T08:13:45;11.20;99.90
16863;DHT22;52193;48.216;-1.698;2024-02-28T08:16:12;11.20;99.90
16863;DHT22;52193;48.216;-1.698;2024-02-28T08:18:39;11.20;99.90
16863;DHT22;52193;48.216;-1.698;2024-02-28T08:21:06;11.20;99.90
16863;DHT22;52193;48.216;-1.698;2024-02-28T08:23:34;11.20;99.90
16863;DHT22;52193;48.216;-1.698;2024-02-28T08:26:02;11.20;99.90
16863;DHT22;52193;48.216;-1.698;2024-02-28T08:28:29;11.20;99.90
16863;DHT22;52193;48.216;-1.698;2024-02-28T08:30:56;11.20;99.90
16863;DHT22;52193;48.216;-1.698;2024-02-28T08:33:23;11.20;99.90
16863;DHT22;52193;48.216;-1.698;2024-02-28T08:35:50;11.30;99.90
16863;DHT22;52193;48.216;-1.698;2024-02-28T08:38:17;11.30;99.90
16863;DHT22;52193;48.216;-1.698;2024-02-28T08:40:44;11.30;99.90
16863;DHT22;52193;48.216;-1.698;2024-02-28T08:43:14;11.40;99.90
16863;DHT22;52193;48.216;-1.698;2024-02-28T08:45:42;11.40;99.90
16863;DHT22;52193;48.216;-1.698;2024-02-28T08:48:09;11.40;99.90
16863;DHT22;52193;48.216;-1.698;2024-02-28T08:50:36;11.50;99.90
16863;DHT22;52193;48.216;-1.698;2024-02-28T08:53:03;11.50;99.90
16863;DHT22;52193;48.216;-1.698;2024-02-28T08:55:30;11.50;99.90
16863;DHT22;52193;48.216;-1.698;2024-02-28T08:57:57;11.60;99.90
16863;DHT22;52193;48.216;-1.698;2024-02-28T09:00:25;11.60;99.90
16863;DHT22;52193;48.216;-1.698;2024-02-28T09:02:52;11.70;99.90
16863;DHT22;52193;48.216;-1.698;2024-02-28T09:05:19;11.70;99.90
16863;DHT22;52193;48.216;-1.698;2024-02-28T09:07:46;11.80;99.90
16863;DHT22;52193;48.216;-1.698;2024-02-28T09:10:16;11.80;99.90
16863;DHT22;52193;48.216;-1.698;2024-02-28T09:12:46;11.90;99.90
16863;DHT22;52193;48.216;-1.698;2024-02-28T09:15:13;11.90;99.90
16863;DHT22;52193;48.216;-1.698;2024-02-28T09:17:42;11.90;99.90
16863;DHT22;52193;48.216;-1.698;2024-02-28T09:20:09;12.00;99.90
16863;DHT22;52193;48.216;-1.698;2024-02-28T09:22:38;12.00;99.90
16863;DHT22;52193;48.216;-1.698;2024-02-28T09:25:06;12.00;99.90
16863;DHT22;52193;48.216;-1.698;2024-02-28T09:27:34;12.00;99.90
16863;DHT22;52193;48.216;-1.698;2024-02-28T09:30:01;12.00;99.90
16863;DHT22;52193;48.216;-1.698;2024-02-28T09:32:28;12.00;99.90
16863;DHT22;52193;48.216;-1.698;2024-02-28T09:34:56;12.10;99.90
16863;DHT22;52193;48.216;-1.698;2024-02-28T09:37:23;12.10;99.90
16863;DHT22;52193;48.216;-1.698;2024-02-28T09:39:50;12.10;99.90
16863;DHT22;52193;48.216;-1.698;2024-02-28T09:42:18;12.20;99.90
16863;DHT22;52193;48.216;-1.698;2024-02-28T09:44:45;12.20;99.90
16863;DHT22;52193;48.216;-1.698;2024-02-28T09:47:13;12.20;99.90
16863;DHT22;52193;48.216;-1.698;2024-02-28T09:49:42;12.30;99.90
16863;DHT22;52193;48.216;-1.698;2024-02-28T09:52:10;12.30;99.90
16863;DHT22;52193;48.216;-1.698;2024-02-28T09:54:37;12.40;99.90
16863;DHT22;52193;48.216;-1.698;2024-02-28T09:57:04;12.40;99.90
16863;DHT22;52193;48.216;-1.698;2024-02-28T09:59:32;12.40;99.90
16863;DHT22;52193;48.216;-1.698;2024-02-28T10:02:02;12.40;99.90
16863;DHT22;52193;48.216;-1.698;2024-02-28T10:04:29;12.40;99.90
16863;DHT22;52193;48.216;-1.698;2024-02-28T10:06:57;12.40;99.90
16863;DHT22;52193;48.216;-1.698;2024-02-28T10:09:25;12.40;99.90
16863;DHT22;52193;48.216;-1.698;2024-02-28T10:11:52;12.40;99.90
16863;DHT22;52193;48.216;-1.698;2024-02-28T10:14:19;12.40;99.90
16863;DHT22;52193;48.216;-1.698;2024-02-28T10:16:46;12.40;99.90
16863;DHT22;52193;48.216;-1.698;2024-02-28T10:19:13;12.40;99.90
16863;DHT22;52193;48.216;-1.698;2024-02-28T10:21:40;12.40;99.90
16863;DHT22;52193;48.216;-1.698;2024-02-28T10:24:07;12.50;99.90
16863;DHT22;52193;48.216;-1.698;2024-02-28T10:26:43;12.50;99.90
16863;DHT22;52193;48.216;-1.698;2024-02-28T10:29:10;12.50;99.90
16863;DHT22;52193;48.216;-1.698;2024-02-28T10:31:37;12.50;99.90
16863;DHT22;52193;48.216;-1.698;2024-02-28T10:34:04;12.50;99.90
16863;DHT22;52193;48.216;-1.698;2024-02-28T10:36:32;12.50;99.90
16863;DHT22;52193;48.216;-1.698;2024-02-28T10:39:00;12.50;99.90
16863;DHT22;52193;48.216;-1.698;2024-02-28T10:41:28;12.50;99.90
16863;DHT22;52193;48.216;-1.698;2024-02-28T10:43:57;12.50;99.90
16863;DHT22;52193;48.216;-1.698;2024-02-28T10:46:25;12.50;99.90
16863;DHT22;52193;48.216;-1.698;2024-02-28T10:48:52;12.60;99.90
16863;DHT22;52193;48.216;-1.698;2024-02-28T10:51:23;12.60;99.90
16863;DHT22;52193;48.216;-1.698;2024-02-28T10:53:58;12.60;99.90
16863;DHT22;52193;48.216;-1.698;2024-02-28T10:56:29;12.60;99.90
16863;DHT22;52193;48.216;-1.698;2024-02-28T10:58:59;12.60;99.90
16863;DHT22;52193;48.216;-1.698;2024-02-28T11:01:26;12.60;99.90
16863;DHT22;52193;48.216;-1.698;2024-02-28T11:03:54;12.70;99.90
16863;DHT22;52193;48.216;-1.698;2024-02-28T11:06:22;12.70;99.90
16863;DHT22;52193;48.216;-1.698;2024-02-28T11:08:51;12.70;99.90
16863;DHT22;52193;48.216;-1.698;2024-02-28T11:11:20;12.80;99.90
16863;DHT22;52193;48.216;-1.698;2024-02-28T11:13:53;12.80;99.90
16863;DHT22;52193;48.216;-1.698;2024-02-28T11:16:28;12.80;99.90
16863;DHT22;52193;48.216;-1.698;2024-02-28T11:18:55;12.90;99.90
16863;DHT22;52193;48.216;-1.698;2024-02-28T11:21:25;12.90;99.90
16863;DHT22;52193;48.216;-1.698;2024-02-28T11:23:56;12.90;99.90
16863;DHT22;52193;48.216;-1.698;2024-02-28T11:26:22;13.00;99.90
16863;DHT22;52193;48.216;-1.698;2024-02-28T11:28:50;13.00;99.90
16863;DHT22;52193;48.216;-1.698;2024-02-28T11:31:17;13.00;99.90
16863;DHT22;52193;48.216;-1.698;2024-02-28T11:33:45;13.00;99.90
16863;DHT22;52193;48.216;-1.698;2024-02-28T11:36:12;13.00;99.90
16863;DHT22;52193;48.216;-1.698;2024-02-28T11:38:40;13.10;99.90
16863;DHT22;52193;48.216;-1.698;2024-02-28T11:41:07;13.20;99.90
16863;DHT22;52193;48.216;-1.698;2024-02-28T11:43:35;13.20;99.90
16863;DHT22;52193;48.216;-1.698;2024-02-28T11:46:02;13.20;99.90
16863;DHT22;52193;48.216;-1.698;2024-02-28T11:48:34;13.30;99.90
16863;DHT22;52193;48.216;-1.698;2024-02-28T11:51:02;13.30;99.90
16863;DHT22;52193;48.216;-1.698;2024-02-28T11:53:29;13.40;99.90
16863;DHT22;52193;48.216;-1.698;2024-02-28T11:55:56;13.50;99.90
16863;DHT22;52193;48.216;-1.698;2024-02-28T11:58:23;13.60;99.90
16863;DHT22;52193;48.216;-1.698;2024-02-28T12:00:51;13.60;99.90
16863;DHT22;52193;48.216;-1.698;2024-02-28T12:03:21;13.70;99.90
16863;DHT22;52193;48.216;-1.698;2024-02-28T12:05:48;13.80;99.90
16863;DHT22;52193;48.216;-1.698;2024-02-28T12:08:19;13.90;99.90
16863;DHT22;52193;48.216;-1.698;2024-02-28T12:10:46;14.00;99.90
16863;DHT22;52193;48.216;-1.698;2024-02-28T12:13:16;14.00;99.90
16863;DHT22;52193;48.216;-1.698;2024-02-28T12:15:43;14.10;99.90
16863;DHT22;52193;48.216;-1.698;2024-02-28T12:18:11;14.00;99.90
16863;DHT22;52193;48.216;-1.698;2024-02-28T12:20:38;14.10;99.90
16863;DHT22;52193;48.216;-1.698;2024-02-28T12:23:05;14.10;99.90
16863;DHT22;52193;48.216;-1.698;2024-02-28T12:25:35;14.10;99.90
16863;DHT22;52193;48.216;-1.698;2024-02-28T12:28:02;14.20;99.90
16863;DHT22;52193;48.216;-1.698;2024-02-28T12:30:31;14.20;99.90
16863;DHT22;52193;48.216;-1.698;2024-02-28T12:32:57;14.30;99.90
16863;DHT22;52193;48.216;-1.698;2024-02-28T12:35:25;14.30;99.90
16863;DHT22;52193;48.216;-1.698;2024-02-28T12:37:52;14.40;99.90
16863;DHT22;52193;48.216;-1.698;2024-02-28T12:40:19;14.40;99.90
16863;DHT22;52193;48.216;-1.698;2024-02-28T12:42:47;14.40;99.90
16863;DHT22;52193;48.216;-1.698;2024-02-28T12:45:14;14.40;99.90
16863;DHT22;52193;48.216;-1.698;2024-02-28T12:47:41;14.50;99.90
16863;DHT22;52193;48.216;-1.698;2024-02-28T12:50:08;14.50;99.90
16863;DHT22;52193;48.216;-1.698;2024-02-28T12:52:37;14.50;99.90
16863;DHT22;52193;48.216;-1.698;2024-02-28T12:55:04;14.60;99.90
16863;DHT22;52193;48.216;-1.698;2024-02-28T12:57:32;14.60;99.90
16863;DHT22;52193;48.216;-1.698;2024-02-28T13:00:00;14.60;99.90
16863;DHT22;52193;48.216;-1.698;2024-02-28T13:02:28;14.60;99.90
16863;DHT22;52193;48.216;-1.698;2024-02-28T13:04:55;14.50;99.90
16863;DHT22;52193;48.216;-1.698;2024-02-28T13:07:22;14.50;99.90
16863;DHT22;52193;48.216;-1.698;2024-02-28T13:09:49;14.50;99.90
16863;DHT22;52193;48.216;-1.698;2024-02-28T13:12:16;14.40;99.90
16863;DHT22;52193;48.216;-1.698;2024-02-28T13:14:45;14.40;99.90
16863;DHT22;52193;48.216;-1.698;2024-02-28T13:17:14;14.40;99.90
16863;DHT22;52193;48.216;-1.698;2024-02-28T13:19:41;14.30;99.90
16863;DHT22;52193;48.216;-1.698;2024-02-28T13:22:07;14.30;99.90
16863;DHT22;52193;48.216;-1.698;2024-02-28T13:24:34;14.30;99.90
16863;DHT22;52193;48.216;-1.698;2024-02-28T13:27:02;14.30;99.90
16863;DHT22;52193;48.216;-1.698;2024-02-28T13:29:29;14.20;99.90
16863;DHT22;52193;48.216;-1.698;2024-02-28T13:31:57;14.20;99.90
16863;DHT22;52193;48.216;-1.698;2024-02-28T13:34:25;14.20;99.90
16863;DHT22;52193;48.216;-1.698;2024-02-28T13:36:52;14.20;99.90
16863;DHT22;52193;48.216;-1.698;2024-02-28T13:39:19;14.20;99.90
16863;DHT22;52193;48.216;-1.698;2024-02-28T13:41:46;14.20;99.90
16863;DHT22;52193;48.216;-1.698;2024-02-28T13:44:16;14.20;99.90
16863;DHT22;52193;48.216;-1.698;2024-02-28T13:46:42;14.20;99.90
16863;DHT22;52193;48.216;-1.698;2024-02-28T13:49:09;14.10;99.90
16863;DHT22;52193;48.216;-1.698;2024-02-28T13:51:38;14.10;99.90
16863;DHT22;52193;48.216;-1.698;2024-02-28T13:54:05;14.10;99.90
16863;DHT22;52193;48.216;-1.698;2024-02-28T13:56:32;14.10;99.90
16863;DHT22;52193;48.216;-1.698;2024-02-28T13:58:59;14.10;99.90
16863;DHT22;52193;48.216;-1.698;2024-02-28T14:01:26;14.10;99.90
16863;DHT22;52193;48.216;-1.698;2024-02-28T14:03:54;14.10;99.90
16863;DHT22;52193;48.216;-1.698;2024-02-28T14:06:21;14.20;99.90
16863;DHT22;52193;48.216;-1.698;2024-02-28T14:08:49;14.10;99.90
16863;DHT22;52193;48.216;-1.698;2024-02-28T14:11:17;14.10;99.90
16863;DHT22;52193;48.216;-1.698;2024-02-28T14:13:44;14.10;99.90
16863;DHT22;52193;48.216;-1.698;2024-02-28T14:16:12;14.10;99.90
16863;DHT22;52193;48.216;-1.698;2024-02-28T14:18:39;14.10;99.90
16863;DHT22;52193;48.216;-1.698;2024-02-28T14:21:05;14.10;99.90
16863;DHT22;52193;48.216;-1.698;2024-02-28T14:23:33;14.10;99.90
16863;DHT22;52193;48.216;-1.698;2024-02-28T14:26:01;14.10;99.90
16863;DHT22;52193;48.216;-1.698;2024-02-28T14:28:29;14.10;99.90
16863;DHT22;52193;48.216;-1.698;2024-02-28T14:30:56;14.10;99.90
16863;DHT22;52193;48.216;-1.698;2024-02-28T14:33:22;14.20;99.90
16863;DHT22;52193;48.216;-1.698;2024-02-28T14:35:49;14.20;99.90
16863;DHT22;52193;48.216;-1.698;2024-02-28T14:38:17;14.20;99.90
16863;DHT22;52193;48.216;-1.698;2024-02-28T14:40:44;14.20;99.90
16863;DHT22;52193;48.216;-1.698;2024-02-28T14:43:12;14.30;99.90
16863;DHT22;52193;48.216;-1.698;2024-02-28T14:45:39;14.30;99.90
16863;DHT22;52193;48.216;-1.698;2024-02-28T14:48:07;14.30;99.90
16863;DHT22;52193;48.216;-1.698;2024-02-28T14:50:33;14.30;99.90
16863;DHT22;52193;48.216;-1.698;2024-02-28T14:53:00;14.30;99.90
16863;DHT22;52193;48.216;-1.698;2024-02-28T14:55:27;14.30;99.90
16863;DHT22;52193;48.216;-1.698;2024-02-28T14:57:54;14.30;99.90
16863;DHT22;52193;48.216;-1.698;2024-02-28T15:00:23;14.30;99.90
16863;DHT22;52193;48.216;-1.698;2024-02-28T15:02:49;14.30;99.90
16863;DHT22;52193;48.216;-1.698;2024-02-28T15:05:19;14.30;99.90
16863;DHT22;52193;48.216;-1.698;2024-02-28T15:07:46;14.30;99.90
16863;DHT22;52193;48.216;-1.698;2024-02-28T15:10:14;14.30;99.90
16863;DHT22;52193;48.216;-1.698;2024-02-28T15:12:41;14.30;99.90
16863;DHT22;52193;48.216;-1.698;2024-02-28T15:15:08;14.30;99.90
16863;DHT22;52193;48.216;-1.698;2024-02-28T15:17:37;14.30;99.90